sensor_id;sensor_type;location;lat;lon;timestamp;P1;durP1;ratioP1;P2;durP2;ratioP2
15393;SDS011;7795;47.986;11.868;2023-07-08T00:00:13;6.83;;;4.83;;
15393;SDS011;7795;47.986;11.868;2023-07-08T00:02:43;7.30;;;5.13;;
15393;SDS011;7795;47.986;11.868;2023-07-08T00:05:09;6.33;;;4.80;;
15393;SDS011;7795;47.986;11.868;2023-07-08T00:07:36;7.00;;;5.00;;
15393;SDS011;7795;47.986;11.868;2023-07-08T00:10:04;6.07;;;4.60;;
15393;SDS011;7795;47.986;11.868;2023-07-08T00:12:39;7.20;;;5.20;;
15393;SDS011;7795;47.986;11.868;2023-07-08T00:15:05;8.03;;;5.47;;
15393;SDS011;7795;47.986;11.868;2023-07-08T00:17:31;6.30;;;4.90;;
15393;SDS011;7795;47.986;11.868;2023-07-08T00:19:58;7.03;;;5.03;;
15393;SDS011;7795;47.986;11.868;2023-07-08T00:22:24;6.67;;;5.20;;
15393;SDS011;7795;47.986;11.868;2023-07-08T00:24:50;6.73;;;4.93;;
15393;SDS011;7795;47.986;11.868;2023-07-08T00:27:16;6.40;;;4.93;;
15393;SDS011;7795;47.986;11.868;2023-07-08T00:29:42;7.20;;;4.77;;
15393;SDS011;7795;47.986;11.868;2023-07-08T00:32:09;7.43;;;4.67;;
15393;SDS011;7795;47.986;11.868;2023-07-08T00:34:36;7.03;;;5.00;;
15393;SDS011;7795;47.986;11.868;2023-07-08T00:37:03;7.27;;;5.10;;
15393;SDS011;7795;47.986;11.868;2023-07-08T00:39:30;6.53;;;4.97;;
15393;SDS011;7795;47.986;11.868;2023-07-08T00:41:56;6.87;;;5.00;;
15393;SDS011;7795;47.986;11.868;2023-07-08T00:44:23;5.40;;;4.47;;
15393;SDS011;7795;47.986;11.868;2023-07-08T00:46:50;10.47;;;6.13;;
15393;SDS011;7795;47.986;11.868;2023-07-08T00:49:25;6.50;;;4.70;;
15393;SDS011;7795;47.986;11.868;2023-07-08T00:51:55;6.97;;;5.53;;
15393;SDS011;7795;47.986;11.868;2023-07-08T00:54:22;7.00;;;5.23;;
15393;SDS011;7795;47.986;11.868;2023-07-08T00:56:48;6.97;;;5.47;;
15393;SDS011;7795;47.986;11.868;2023-07-08T00:59:17;6.23;;;5.23;;
15393;SDS011;7795;47.986;11.868;2023-07-08T01:01:45;7.23;;;5.70;;
15393;SDS011;7795;47.986;11.868;2023-07-08T01:04:14;6.47;;;5.07;;
15393;SDS011;7795;47.986;11.868;2023-07-08T01:06:44;5.50;;;4.60;;
15393;SDS011;7795;47.986;11.868;2023-07-08T01:09:18;7.27;;;5.33;;
15393;SDS011;7795;47.986;11.868;2023-07-08T01:11:45;7.00;;;4.63;;
15393;SDS011;7795;47.986;11.868;2023-07-08T01:14:12;7.00;;;5.07;;
15393;SDS011;7795;47.986;11.868;2023-07-08T01:16:42;10.10;;;5.03;;
15393;SDS011;7795;47.986;11.868;2023-07-08T01:19:09;8.40;;;5.03;;
15393;SDS011;7795;47.986;11.868;2023-07-08T01:21:45;7.57;;;5.20;;
15393;SDS011;7795;47.986;11.868;2023-07-08T01:24:12;5.73;;;4.63;;
15393;SDS011;7795;47.986;11.868;2023-07-08T01:26:39;5.40;;;4.43;;
15393;SDS011;7795;47.986;11.868;2023-07-08T01:29:09;5.60;;;4.63;;
15393;SDS011;7795;47.986;11.868;2023-07-08T01:31:36;6.63;;;4.93;;
15393;SDS011;7795;47.986;11.868;2023-07-08T01:34:02;8.17;;;4.97;;
15393;SDS011;7795;47.986;11.868;2023-07-08T01:36:28;6.37;;;5.03;;
15393;SDS011;7795;47.986;11.868;2023-07-08T01:39:00;6.00;;;4.50;;
15393;SDS011;7795;47.986;11.868;2023-07-08T01:41:26;6.20;;;4.97;;
15393;SDS011;7795;47.986;11.868;2023-07-08T01:43:52;6.07;;;4.50;;
15393;SDS011;7795;47.986;11.868;2023-07-08T01:46:19;6.50;;;4.73;;
15393;SDS011;7795;47.986;11.868;2023-07-08T01:48:48;7.00;;;5.03;;
15393;SDS011;7795;47.986;11.868;2023-07-08T01:51:17;6.30;;;5.20;;
15393;SDS011;7795;47.986;11.868;2023-07-08T01:53:43;6.47;;;4.70;;
15393;SDS011;7795;47.986;11.868;2023-07-08T01:56:11;7.17;;;4.87;;
15393;SDS011;7795;47.986;11.868;2023-07-08T01:58:38;6.33;;;5.00;;
15393;SDS011;7795;47.986;11.868;2023-07-08T02:01:05;8.83;;;5.33;;
15393;SDS011;7795;47.986;11.868;2023-07-08T02:03:31;6.17;;;4.77;;
15393;SDS011;7795;47.986;11.868;2023-07-08T02:05:57;5.80;;;4.60;;
15393;SDS011;7795;47.986;11.868;2023-07-08T02:08:23;6.07;;;5.07;;
15393;SDS011;7795;47.986;11.868;2023-07-08T02:10:50;6.27;;;4.87;;
15393;SDS011;7795;47.986;11.868;2023-07-08T02:13:18;6.00;;;4.73;;
15393;SDS011;7795;47.986;11.868;2023-07-08T02:15:44;6.77;;;5.40;;
15393;SDS011;7795;47.986;11.868;2023-07-08T02:18:10;5.63;;;4.67;;
15393;SDS011;7795;47.986;11.868;2023-07-08T02:20:36;5.50;;;4.40;;
15393;SDS011;7795;47.986;11.868;2023-07-08T02:23:01;6.67;;;4.93;;
15393;SDS011;7795;47.986;11.868;2023-07-08T02:25:27;5.80;;;4.63;;
15393;SDS011;7795;47.986;11.868;2023-07-08T02:27:53;7.27;;;4.77;;
15393;SDS011;7795;47.986;11.868;2023-07-08T02:30:23;7.27;;;5.30;;
15393;SDS011;7795;47.986;11.868;2023-07-08T02:32:49;6.37;;;4.97;;
15393;SDS011;7795;47.986;11.868;2023-07-08T02:35:22;7.93;;;5.07;;
15393;SDS011;7795;47.986;11.868;2023-07-08T02:37:48;8.33;;;5.50;;
15393;SDS011;7795;47.986;11.868;2023-07-08T02:40:14;7.30;;;5.27;;
15393;SDS011;7795;47.986;11.868;2023-07-08T02:42:40;7.27;;;4.93;;
15393;SDS011;7795;47.986;11.868;2023-07-08T02:45:06;8.60;;;5.20;;
15393;SDS011;7795;47.986;11.868;2023-07-08T02:47:34;6.03;;;4.80;;
15393;SDS011;7795;47.986;11.868;2023-07-08T02:50:00;5.80;;;4.57;;
15393;SDS011;7795;47.986;11.868;2023-07-08T02:52:25;5.00;;;4.20;;
15393;SDS011;7795;47.986;11.868;2023-07-08T02:54:51;7.40;;;4.47;;
15393;SDS011;7795;47.986;11.868;2023-07-08T02:57:17;5.33;;;4.37;;
15393;SDS011;7795;47.986;11.868;2023-07-08T02:59:42;5.60;;;4.70;;
15393;SDS011;7795;47.986;11.868;2023-07-08T03:02:08;7.07;;;4.83;;
15393;SDS011;7795;47.986;11.868;2023-07-08T03:04:35;7.80;;;5.33;;
15393;SDS011;7795;47.986;11.868;2023-07-08T03:07:04;7.67;;;5.23;;
15393;SDS011;7795;47.986;11.868;2023-07-08T03:09:30;5.73;;;4.57;;
15393;SDS011;7795;47.986;11.868;2023-07-08T03:11:57;6.53;;;5.00;;
15393;SDS011;7795;47.986;11.868;2023-07-08T03:14:23;6.30;;;4.63;;
15393;SDS011;7795;47.986;11.868;2023-07-08T03:16:48;6.77;;;5.23;;
15393;SDS011;7795;47.986;11.868;2023-07-08T03:19:14;6.67;;;5.23;;
15393;SDS011;7795;47.986;11.868;2023-07-08T03:21:41;6.80;;;5.13;;
15393;SDS011;7795;47.986;11.868;2023-07-08T03:24:08;7.33;;;5.20;;
15393;SDS011;7795;47.986;11.868;2023-07-08T03:26:36;7.03;;;5.23;;
15393;SDS011;7795;47.986;11.868;2023-07-08T03:29:01;6.87;;;4.93;;
15393;SDS011;7795;47.986;11.868;2023-07-08T03:31:27;6.87;;;5.03;;
15393;SDS011;7795;47.986;11.868;2023-07-08T03:33:53;7.23;;;5.40;;
15393;SDS011;7795;47.986;11.868;2023-07-08T03:36:19;6.83;;;4.70;;
15393;SDS011;7795;47.986;11.868;2023-07-08T03:38:50;6.43;;;5.00;;
15393;SDS011;7795;47.986;11.868;2023-07-08T03:41:16;5.10;;;4.30;;
15393;SDS011;7795;47.986;11.868;2023-07-08T03:43:42;7.30;;;5.00;;
15393;SDS011;7795;47.986;11.868;2023-07-08T03:46:08;5.87;;;4.53;;
15393;SDS011;7795;47.986;11.868;2023-07-08T03:48:35;5.80;;;4.50;;
15393;SDS011;7795;47.986;11.868;2023-07-08T03:51:01;5.80;;;4.43;;
15393;SDS011;7795;47.986;11.868;2023-07-08T03:53:27;7.17;;;5.03;;
15393;SDS011;7795;47.986;11.868;2023-07-08T03:55:54;6.07;;;4.77;;
15393;SDS011;7795;47.986;11.868;2023-07-08T03:58:19;5.40;;;4.27;;
15393;SDS011;7795;47.986;11.868;2023-07-08T04:00:45;6.33;;;4.43;;
15393;SDS011;7795;47.986;11.868;2023-07-08T04:03:11;6.73;;;5.40;;
15393;SDS011;7795;47.986;11.868;2023-07-08T04:05:36;7.20;;;5.63;;
15393;SDS011;7795;47.986;11.868;2023-07-08T04:08:03;5.03;;;4.17;;
15393;SDS011;7795;47.986;11.868;2023-07-08T04:10:29;7.30;;;5.67;;
15393;SDS011;7795;47.986;11.868;2023-07-08T04:12:56;6.77;;;5.10;;
15393;SDS011;7795;47.986;11.868;2023-07-08T04:15:21;6.43;;;5.17;;
15393;SDS011;7795;47.986;11.868;2023-07-08T04:17:50;6.70;;;4.97;;
15393;SDS011;7795;47.986;11.868;2023-07-08T04:20:18;7.20;;;5.03;;
15393;SDS011;7795;47.986;11.868;2023-07-08T04:22:44;5.97;;;4.70;;
15393;SDS011;7795;47.986;11.868;2023-07-08T04:25:10;7.17;;;5.33;;
15393;SDS011;7795;47.986;11.868;2023-07-08T04:27:37;6.23;;;4.80;;
15393;SDS011;7795;47.986;11.868;2023-07-08T04:30:05;5.90;;;4.87;;
15393;SDS011;7795;47.986;11.868;2023-07-08T04:32:32;7.63;;;4.80;;
15393;SDS011;7795;47.986;11.868;2023-07-08T04:34:58;5.67;;;4.90;;
15393;SDS011;7795;47.986;11.868;2023-07-08T04:37:24;5.97;;;4.83;;
15393;SDS011;7795;47.986;11.868;2023-07-08T04:39:50;8.53;;;5.40;;
15393;SDS011;7795;47.986;11.868;2023-07-08T04:42:16;7.07;;;5.00;;
15393;SDS011;7795;47.986;11.868;2023-07-08T04:44:42;7.43;;;5.17;;
15393;SDS011;7795;47.986;11.868;2023-07-08T04:47:10;6.37;;;4.97;;
15393;SDS011;7795;47.986;11.868;2023-07-08T04:49:38;8.33;;;5.77;;
15393;SDS011;7795;47.986;11.868;2023-07-08T04:52:06;6.40;;;5.17;;
15393;SDS011;7795;47.986;11.868;2023-07-08T04:54:31;6.43;;;4.63;;
15393;SDS011;7795;47.986;11.868;2023-07-08T04:56:57;8.10;;;5.37;;
15393;SDS011;7795;47.986;11.868;2023-07-08T04:59:23;8.63;;;4.93;;
15393;SDS011;7795;47.986;11.868;2023-07-08T05:01:50;7.37;;;5.07;;
15393;SDS011;7795;47.986;11.868;2023-07-08T05:04:19;6.43;;;4.87;;
15393;SDS011;7795;47.986;11.868;2023-07-08T05:06:46;7.50;;;5.47;;
15393;SDS011;7795;47.986;11.868;2023-07-08T05:09:12;6.20;;;5.40;;
15393;SDS011;7795;47.986;11.868;2023-07-08T05:11:38;6.50;;;4.97;;
15393;SDS011;7795;47.986;11.868;2023-07-08T05:14:04;7.70;;;5.33;;
15393;SDS011;7795;47.986;11.868;2023-07-08T05:16:31;6.53;;;4.90;;
15393;SDS011;7795;47.986;11.868;2023-07-08T05:18:58;9.17;;;5.70;;
15393;SDS011;7795;47.986;11.868;2023-07-08T05:21:25;7.23;;;5.23;;
15393;SDS011;7795;47.986;11.868;2023-07-08T05:23:54;6.80;;;4.83;;
15393;SDS011;7795;47.986;11.868;2023-07-08T05:26:20;8.13;;;5.37;;
15393;SDS011;7795;47.986;11.868;2023-07-08T05:28:46;8.07;;;5.93;;
15393;SDS011;7795;47.986;11.868;2023-07-08T05:31:12;7.20;;;5.70;;
15393;SDS011;7795;47.986;11.868;2023-07-08T05:33:38;9.73;;;5.97;;
15393;SDS011;7795;47.986;11.868;2023-07-08T05:36:04;7.70;;;6.00;;
15393;SDS011;7795;47.986;11.868;2023-07-08T05:38:31;10.43;;;5.80;;
15393;SDS011;7795;47.986;11.868;2023-07-08T05:40:57;7.13;;;5.53;;
15393;SDS011;7795;47.986;11.868;2023-07-08T05:43:23;8.07;;;5.67;;
15393;SDS011;7795;47.986;11.868;2023-07-08T05:45:50;7.23;;;5.27;;
15393;SDS011;7795;47.986;11.868;2023-07-08T05:48:15;6.20;;;5.23;;
15393;SDS011;7795;47.986;11.868;2023-07-08T05:50:41;6.33;;;5.23;;
15393;SDS011;7795;47.986;11.868;2023-07-08T05:53:08;8.43;;;5.97;;
15393;SDS011;7795;47.986;11.868;2023-07-08T05:55:36;8.17;;;6.20;;
15393;SDS011;7795;47.986;11.868;2023-07-08T05:58:02;7.20;;;5.57;;
15393;SDS011;7795;47.986;11.868;2023-07-08T06:00:28;8.23;;;5.97;;
15393;SDS011;7795;47.986;11.868;2023-07-08T06:02:54;6.80;;;5.10;;
15393;SDS011;7795;47.986;11.868;2023-07-08T06:05:20;8.83;;;6.30;;
15393;SDS011;7795;47.986;11.868;2023-07-08T06:07:45;8.43;;;6.43;;
15393;SDS011;7795;47.986;11.868;2023-07-08T06:10:11;7.00;;;5.77;;
15393;SDS011;7795;47.986;11.868;2023-07-08T06:12:38;7.63;;;5.50;;
15393;SDS011;7795;47.986;11.868;2023-07-08T06:15:04;10.00;;;6.87;;
15393;SDS011;7795;47.986;11.868;2023-07-08T06:17:31;8.37;;;6.30;;
15393;SDS011;7795;47.986;11.868;2023-07-08T06:19:56;6.93;;;5.33;;
15393;SDS011;7795;47.986;11.868;2023-07-08T06:22:22;7.20;;;5.97;;
15393;SDS011;7795;47.986;11.868;2023-07-08T06:24:48;7.80;;;6.37;;
15393;SDS011;7795;47.986;11.868;2023-07-08T06:27:14;9.10;;;6.50;;
15393;SDS011;7795;47.986;11.868;2023-07-08T06:29:42;8.40;;;6.20;;
15393;SDS011;7795;47.986;11.868;2023-07-08T06:32:08;7.60;;;6.60;;
15393;SDS011;7795;47.986;11.868;2023-07-08T06:34:34;7.67;;;6.50;;
15393;SDS011;7795;47.986;11.868;2023-07-08T06:36:59;10.03;;;7.33;;
15393;SDS011;7795;47.986;11.868;2023-07-08T06:39:25;10.03;;;7.13;;
15393;SDS011;7795;47.986;11.868;2023-07-08T06:41:51;9.00;;;6.60;;
15393;SDS011;7795;47.986;11.868;2023-07-08T06:44:16;6.70;;;5.67;;
15393;SDS011;7795;47.986;11.868;2023-07-08T06:46:43;8.47;;;6.00;;
15393;SDS011;7795;47.986;11.868;2023-07-08T06:49:09;7.93;;;5.67;;
15393;SDS011;7795;47.986;11.868;2023-07-08T06:51:37;7.93;;;6.30;;
15393;SDS011;7795;47.986;11.868;2023-07-08T06:54:03;9.37;;;6.57;;
15393;SDS011;7795;47.986;11.868;2023-07-08T06:56:36;9.30;;;6.47;;
15393;SDS011;7795;47.986;11.868;2023-07-08T06:59:02;8.73;;;6.17;;
15393;SDS011;7795;47.986;11.868;2023-07-08T07:01:27;8.53;;;5.37;;
15393;SDS011;7795;47.986;11.868;2023-07-08T07:03:54;10.03;;;6.50;;
15393;SDS011;7795;47.986;11.868;2023-07-08T07:06:20;10.03;;;6.43;;
15393;SDS011;7795;47.986;11.868;2023-07-08T07:08:46;7.50;;;6.13;;
15393;SDS011;7795;47.986;11.868;2023-07-08T07:11:12;7.70;;;6.00;;
15393;SDS011;7795;47.986;11.868;2023-07-08T07:13:37;10.37;;;5.67;;
15393;SDS011;7795;47.986;11.868;2023-07-08T07:16:03;7.43;;;5.73;;
15393;SDS011;7795;47.986;11.868;2023-07-08T07:18:29;7.47;;;5.57;;
15393;SDS011;7795;47.986;11.868;2023-07-08T07:20:57;8.30;;;5.97;;
15393;SDS011;7795;47.986;11.868;2023-07-08T07:23:23;9.13;;;5.90;;
15393;SDS011;7795;47.986;11.868;2023-07-08T07:25:49;6.67;;;5.80;;
15393;SDS011;7795;47.986;11.868;2023-07-08T07:28:15;8.30;;;6.43;;
15393;SDS011;7795;47.986;11.868;2023-07-08T07:30:41;8.20;;;5.90;;
15393;SDS011;7795;47.986;11.868;2023-07-08T07:33:07;11.02;;;6.30;;
15393;SDS011;7795;47.986;11.868;2023-07-08T07:35:33;7.87;;;5.33;;
15393;SDS011;7795;47.986;11.868;2023-07-08T07:38:00;7.28;;;5.90;;
15393;SDS011;7795;47.986;11.868;2023-07-08T07:40:26;6.93;;;5.82;;
15393;SDS011;7795;47.986;11.868;2023-07-08T07:42:51;8.20;;;5.97;;
15393;SDS011;7795;47.986;11.868;2023-07-08T07:45:17;7.63;;;6.00;;
15393;SDS011;7795;47.986;11.868;2023-07-08T07:47:44;8.13;;;6.00;;
15393;SDS011;7795;47.986;11.868;2023-07-08T07:50:10;9.32;;;5.90;;
15393;SDS011;7795;47.986;11.868;2023-07-08T07:52:36;7.60;;;5.50;;
15393;SDS011;7795;47.986;11.868;2023-07-08T07:55:04;7.90;;;5.93;;
15393;SDS011;7795;47.986;11.868;2023-07-08T07:57:30;6.93;;;5.22;;
15393;SDS011;7795;47.986;11.868;2023-07-08T07:59:55;8.50;;;5.93;;
15393;SDS011;7795;47.986;11.868;2023-07-08T08:02:21;6.50;;;5.40;;
15393;SDS011;7795;47.986;11.868;2023-07-08T08:04:47;7.45;;;5.40;;
15393;SDS011;7795;47.986;11.868;2023-07-08T08:07:13;6.18;;;5.28;;
15393;SDS011;7795;47.986;11.868;2023-07-08T08:09:38;7.80;;;6.15;;
15393;SDS011;7795;47.986;11.868;2023-07-08T08:12:07;6.55;;;5.35;;
15393;SDS011;7795;47.986;11.868;2023-07-08T08:14:34;5.88;;;4.63;;
15393;SDS011;7795;47.986;11.868;2023-07-08T08:17:00;8.57;;;5.28;;
15393;SDS011;7795;47.986;11.868;2023-07-08T08:19:26;6.78;;;5.25;;
15393;SDS011;7795;47.986;11.868;2023-07-08T08:21:51;6.38;;;4.90;;
15393;SDS011;7795;47.986;11.868;2023-07-08T08:24:17;7.05;;;5.00;;
15393;SDS011;7795;47.986;11.868;2023-07-08T08:26:43;8.60;;;5.60;;
15393;SDS011;7795;47.986;11.868;2023-07-08T08:29:10;5.97;;;5.15;;
15393;SDS011;7795;47.986;11.868;2023-07-08T08:31:36;6.68;;;5.47;;
15393;SDS011;7795;47.986;11.868;2023-07-08T08:34:01;7.05;;;5.05;;
15393;SDS011;7795;47.986;11.868;2023-07-08T08:36:27;5.75;;;4.72;;
15393;SDS011;7795;47.986;11.868;2023-07-08T08:38:53;7.32;;;5.22;;
15393;SDS011;7795;47.986;11.868;2023-07-08T08:41:21;7.80;;;5.25;;
15393;SDS011;7795;47.986;11.868;2023-07-08T08:43:53;7.78;;;5.03;;
15393;SDS011;7795;47.986;11.868;2023-07-08T08:46:23;5.75;;;4.63;;
15393;SDS011;7795;47.986;11.868;2023-07-08T08:48:56;6.57;;;4.70;;
15393;SDS011;7795;47.986;11.868;2023-07-08T08:51:27;6.63;;;4.50;;
15393;SDS011;7795;47.986;11.868;2023-07-08T08:53:56;7.38;;;5.22;;
15393;SDS011;7795;47.986;11.868;2023-07-08T08:56:24;7.65;;;4.70;;
15393;SDS011;7795;47.986;11.868;2023-07-08T08:58:54;7.05;;;5.18;;
15393;SDS011;7795;47.986;11.868;2023-07-08T09:01:28;5.93;;;5.03;;
15393;SDS011;7795;47.986;11.868;2023-07-08T09:03:55;6.30;;;5.13;;
15393;SDS011;7795;47.986;11.868;2023-07-08T09:06:26;9.23;;;5.47;;
15393;SDS011;7795;47.986;11.868;2023-07-08T09:08:54;6.30;;;5.18;;
15393;SDS011;7795;47.986;11.868;2023-07-08T09:11:32;6.47;;;4.80;;
15393;SDS011;7795;47.986;11.868;2023-07-08T09:14:03;8.65;;;5.03;;
15393;SDS011;7795;47.986;11.868;2023-07-08T09:16:42;5.80;;;4.90;;
15393;SDS011;7795;47.986;11.868;2023-07-08T09:19:14;6.25;;;4.97;;
15393;SDS011;7795;47.986;11.868;2023-07-08T09:21:45;6.80;;;4.90;;
15393;SDS011;7795;47.986;11.868;2023-07-08T09:24:16;7.30;;;5.18;;
15393;SDS011;7795;47.986;11.868;2023-07-08T09:26:45;8.88;;;5.13;;
15393;SDS011;7795;47.986;11.868;2023-07-08T09:29:14;5.50;;;4.85;;
15393;SDS011;7795;47.986;11.868;2023-07-08T09:31:41;6.70;;;5.20;;
15393;SDS011;7795;47.986;11.868;2023-07-08T09:34:08;5.63;;;4.85;;
15393;SDS011;7795;47.986;11.868;2023-07-08T09:36:38;5.70;;;5.10;;
15393;SDS011;7795;47.986;11.868;2023-07-08T09:39:08;6.35;;;4.80;;
15393;SDS011;7795;47.986;11.868;2023-07-08T09:41:35;7.03;;;5.25;;
15393;SDS011;7795;47.986;11.868;2023-07-08T09:46:52;6.38;;;5.35;;
15393;SDS011;7795;47.986;11.868;2023-07-08T09:49:20;8.05;;;5.85;;
15393;SDS011;7795;47.986;11.868;2023-07-08T09:51:48;7.15;;;5.72;;
15393;SDS011;7795;47.986;11.868;2023-07-08T09:54:15;6.63;;;5.15;;
15393;SDS011;7795;47.986;11.868;2023-07-08T09:56:43;6.38;;;5.53;;
15393;SDS011;7795;47.986;11.868;2023-07-08T09:59:12;8.18;;;4.80;;
15393;SDS011;7795;47.986;11.868;2023-07-08T10:01:40;6.72;;;5.80;;
15393;SDS011;7795;47.986;11.868;2023-07-08T10:04:08;6.60;;;5.32;;
15393;SDS011;7795;47.986;11.868;2023-07-08T10:06:34;6.78;;;5.75;;
15393;SDS011;7795;47.986;11.868;2023-07-08T10:09:02;9.07;;;5.38;;
15393;SDS011;7795;47.986;11.868;2023-07-08T10:11:29;6.75;;;4.93;;
15393;SDS011;7795;47.986;11.868;2023-07-08T10:13:57;6.47;;;4.95;;
15393;SDS011;7795;47.986;11.868;2023-07-08T10:16:27;11.15;;;5.97;;
15393;SDS011;7795;47.986;11.868;2023-07-08T10:18:56;6.47;;;5.13;;
15393;SDS011;7795;47.986;11.868;2023-07-08T10:21:28;5.38;;;4.63;;
15393;SDS011;7795;47.986;11.868;2023-07-08T10:24:00;9.55;;;5.10;;
15393;SDS011;7795;47.986;11.868;2023-07-08T10:26:42;7.22;;;6.10;;
15393;SDS011;7795;47.986;11.868;2023-07-08T10:29:12;7.32;;;5.50;;
15393;SDS011;7795;47.986;11.868;2023-07-08T10:31:48;8.90;;;6.80;;
15393;SDS011;7795;47.986;11.868;2023-07-08T10:34:22;7.82;;;5.57;;
15393;SDS011;7795;47.986;11.868;2023-07-08T10:36:59;7.28;;;5.88;;
15393;SDS011;7795;47.986;11.868;2023-07-08T10:39:43;7.75;;;5.35;;
15393;SDS011;7795;47.986;11.868;2023-07-08T10:42:18;6.18;;;4.90;;
15393;SDS011;7795;47.986;11.868;2023-07-08T10:44:53;8.02;;;5.28;;
15393;SDS011;7795;47.986;11.868;2023-07-08T10:47:33;6.55;;;5.00;;
15393;SDS011;7795;47.986;11.868;2023-07-08T10:50:13;7.00;;;5.20;;
15393;SDS011;7795;47.986;11.868;2023-07-08T10:52:54;5.90;;;5.28;;
15393;SDS011;7795;47.986;11.868;2023-07-08T10:55:32;7.10;;;5.00;;
15393;SDS011;7795;47.986;11.868;2023-07-08T10:58:19;6.93;;;4.60;;
15393;SDS011;7795;47.986;11.868;2023-07-08T11:01:00;6.68;;;4.72;;
15393;SDS011;7795;47.986;11.868;2023-07-08T11:03:40;6.45;;;4.47;;
15393;SDS011;7795;47.986;11.868;2023-07-08T11:06:17;8.85;;;5.38;;
15393;SDS011;7795;47.986;11.868;2023-07-08T11:08:48;6.38;;;5.10;;
15393;SDS011;7795;47.986;11.868;2023-07-08T11:11:22;6.40;;;5.38;;
15393;SDS011;7795;47.986;11.868;2023-07-08T11:13:56;6.80;;;5.03;;
15393;SDS011;7795;47.986;11.868;2023-07-08T11:16:27;6.18;;;4.30;;
15393;SDS011;7795;47.986;11.868;2023-07-08T11:18:59;6.45;;;4.90;;
15393;SDS011;7795;47.986;11.868;2023-07-08T11:21:31;6.05;;;5.20;;
15393;SDS011;7795;47.986;11.868;2023-07-08T11:24:04;6.57;;;5.05;;
15393;SDS011;7795;47.986;11.868;2023-07-08T11:26:37;6.50;;;4.85;;
15393;SDS011;7795;47.986;11.868;2023-07-08T11:29:09;6.38;;;5.15;;
15393;SDS011;7795;47.986;11.868;2023-07-08T11:31:40;6.72;;;5.07;;
15393;SDS011;7795;47.986;11.868;2023-07-08T11:34:06;7.22;;;4.93;;
15393;SDS011;7795;47.986;11.868;2023-07-08T11:36:36;6.25;;;4.70;;
15393;SDS011;7795;47.986;11.868;2023-07-08T11:39:04;5.75;;;5.00;;
15393;SDS011;7795;47.986;11.868;2023-07-08T11:42:03;6.75;;;5.05;;
15393;SDS011;7795;47.986;11.868;2023-07-08T11:44:36;8.43;;;5.20;;
15393;SDS011;7795;47.986;11.868;2023-07-08T11:47:10;6.93;;;5.10;;
15393;SDS011;7795;47.986;11.868;2023-07-08T11:49:41;5.40;;;4.68;;
15393;SDS011;7795;47.986;11.868;2023-07-08T11:52:08;7.55;;;6.45;;
15393;SDS011;7795;47.986;11.868;2023-07-08T11:54:44;6.03;;;5.13;;
15393;SDS011;7795;47.986;11.868;2023-07-08T11:57:16;6.63;;;5.25;;
15393;SDS011;7795;47.986;11.868;2023-07-08T11:59:43;6.10;;;4.90;;
15393;SDS011;7795;47.986;11.868;2023-07-08T12:02:12;7.90;;;5.03;;
15393;SDS011;7795;47.986;11.868;2023-07-08T12:04:51;6.53;;;4.97;;
15393;SDS011;7795;47.986;11.868;2023-07-08T12:07:30;5.78;;;4.70;;
15393;SDS011;7795;47.986;11.868;2023-07-08T12:09:59;6.15;;;5.00;;
15393;SDS011;7795;47.986;11.868;2023-07-08T12:12:30;5.47;;;4.45;;
15393;SDS011;7795;47.986;11.868;2023-07-08T12:15:04;6.03;;;4.75;;
15393;SDS011;7795;47.986;11.868;2023-07-08T12:17:34;5.25;;;4.30;;
15393;SDS011;7795;47.986;11.868;2023-07-08T12:20:02;6.30;;;4.88;;
15393;SDS011;7795;47.986;11.868;2023-07-08T12:22:32;6.32;;;5.03;;
15393;SDS011;7795;47.986;11.868;2023-07-08T12:24:59;7.65;;;4.60;;
15393;SDS011;7795;47.986;11.868;2023-07-08T12:27:30;6.00;;;4.70;;
15393;SDS011;7795;47.986;11.868;2023-07-08T12:29:56;6.28;;;4.40;;
15393;SDS011;7795;47.986;11.868;2023-07-08T12:32:22;6.80;;;4.50;;
15393;SDS011;7795;47.986;11.868;2023-07-08T12:34:50;6.05;;;4.78;;
15393;SDS011;7795;47.986;11.868;2023-07-08T12:37:16;5.63;;;4.40;;
15393;SDS011;7795;47.986;11.868;2023-07-08T12:39:42;5.18;;;4.30;;
15393;SDS011;7795;47.986;11.868;2023-07-08T12:42:10;7.82;;;4.75;;
15393;SDS011;7795;47.986;11.868;2023-07-08T12:44:38;5.47;;;4.45;;
15393;SDS011;7795;47.986;11.868;2023-07-08T12:47:07;6.30;;;4.38;;
15393;SDS011;7795;47.986;11.868;2023-07-08T12:49:33;7.68;;;6.88;;
15393;SDS011;7795;47.986;11.868;2023-07-08T12:51:59;5.38;;;4.88;;
15393;SDS011;7795;47.986;11.868;2023-07-08T12:54:27;6.28;;;4.65;;
15393;SDS011;7795;47.986;11.868;2023-07-08T12:56:53;6.20;;;4.10;;
15393;SDS011;7795;47.986;11.868;2023-07-08T12:59:21;5.60;;;4.63;;
15393;SDS011;7795;47.986;11.868;2023-07-08T13:01:49;5.57;;;4.38;;
15393;SDS011;7795;47.986;11.868;2023-07-08T13:04:17;4.97;;;4.47;;
15393;SDS011;7795;47.986;11.868;2023-07-08T13:06:44;6.28;;;4.70;;
15393;SDS011;7795;47.986;11.868;2023-07-08T13:09:33;5.80;;;4.82;;
15393;SDS011;7795;47.986;11.868;2023-07-08T13:12:03;5.35;;;4.65;;
15393;SDS011;7795;47.986;11.868;2023-07-08T13:14:37;5.55;;;4.75;;
15393;SDS011;7795;47.986;11.868;2023-07-08T13:17:08;6.72;;;5.35;;
15393;SDS011;7795;47.986;11.868;2023-07-08T13:19:35;5.63;;;4.57;;
15393;SDS011;7795;47.986;11.868;2023-07-08T13:22:02;6.00;;;4.57;;
15393;SDS011;7795;47.986;11.868;2023-07-08T13:24:30;5.63;;;4.75;;
15393;SDS011;7795;47.986;11.868;2023-07-08T13:26:56;5.60;;;4.60;;
15393;SDS011;7795;47.986;11.868;2023-07-08T13:29:22;5.43;;;4.72;;
15393;SDS011;7795;47.986;11.868;2023-07-08T13:31:55;5.43;;;4.40;;
15393;SDS011;7795;47.986;11.868;2023-07-08T13:34:23;5.75;;;4.53;;
15393;SDS011;7795;47.986;11.868;2023-07-08T13:36:51;4.93;;;4.35;;
15393;SDS011;7795;47.986;11.868;2023-07-08T13:39:19;5.45;;;4.28;;
15393;SDS011;7795;47.986;11.868;2023-07-08T13:41:49;4.43;;;4.03;;
15393;SDS011;7795;47.986;11.868;2023-07-08T13:44:15;6.28;;;4.90;;
15393;SDS011;7795;47.986;11.868;2023-07-08T13:46:44;4.95;;;4.05;;
15393;SDS011;7795;47.986;11.868;2023-07-08T13:49:19;6.32;;;4.82;;
15393;SDS011;7795;47.986;11.868;2023-07-08T13:51:48;5.55;;;3.92;;
15393;SDS011;7795;47.986;11.868;2023-07-08T13:54:17;5.30;;;4.10;;
15393;SDS011;7795;47.986;11.868;2023-07-08T13:56:46;6.05;;;4.75;;
15393;SDS011;7795;47.986;11.868;2023-07-08T13:59:16;5.95;;;4.43;;
15393;SDS011;7795;47.986;11.868;2023-07-08T14:01:44;6.05;;;4.32;;
15393;SDS011;7795;47.986;11.868;2023-07-08T14:04:10;6.30;;;4.70;;
15393;SDS011;7795;47.986;11.868;2023-07-08T14:06:40;5.57;;;4.00;;
15393;SDS011;7795;47.986;11.868;2023-07-08T14:09:07;5.75;;;4.10;;
15393;SDS011;7795;47.986;11.868;2023-07-08T14:11:37;7.65;;;4.18;;
15393;SDS011;7795;47.986;11.868;2023-07-08T14:14:03;5.03;;;3.78;;
15393;SDS011;7795;47.986;11.868;2023-07-08T14:16:30;5.28;;;4.18;;
15393;SDS011;7795;47.986;11.868;2023-07-08T14:18:59;4.90;;;4.00;;
15393;SDS011;7795;47.986;11.868;2023-07-08T14:21:28;5.70;;;4.43;;
15393;SDS011;7795;47.986;11.868;2023-07-08T14:23:55;4.28;;;3.80;;
15393;SDS011;7795;47.986;11.868;2023-07-08T14:26:21;4.70;;;3.40;;
15393;SDS011;7795;47.986;11.868;2023-07-08T14:28:47;5.38;;;3.33;;
15393;SDS011;7795;47.986;11.868;2023-07-08T14:31:14;6.18;;;3.38;;
15393;SDS011;7795;47.986;11.868;2023-07-08T14:33:42;4.05;;;3.15;;
15393;SDS011;7795;47.986;11.868;2023-07-08T14:36:08;3.67;;;3.03;;
15393;SDS011;7795;47.986;11.868;2023-07-08T14:38:35;6.57;;;2.97;;
15393;SDS011;7795;47.986;11.868;2023-07-08T14:41:02;4.05;;;2.80;;
15393;SDS011;7795;47.986;11.868;2023-07-08T14:43:29;3.45;;;2.50;;
15393;SDS011;7795;47.986;11.868;2023-07-08T14:45:57;3.83;;;3.10;;
15393;SDS011;7795;47.986;11.868;2023-07-08T14:48:27;4.85;;;2.90;;
15393;SDS011;7795;47.986;11.868;2023-07-08T14:50:53;4.53;;;3.00;;
15393;SDS011;7795;47.986;11.868;2023-07-08T14:53:19;4.90;;;3.45;;
15393;SDS011;7795;47.986;11.868;2023-07-08T14:55:45;5.90;;;3.30;;